createdAt,value
2019-03-01T00:01:29.819Z,95.45
2019-03-01T00:06:41.788Z,95.38
2019-03-01T00:12:00.207Z,95.28
2019-03-01T00:17:20.469Z,95.21
2019-03-01T00:22:42.422Z,95.32
2019-03-01T00:28:01.830Z,95.08
2019-03-01T00:33:22.317Z,94.91
2019-03-01T00:38:45.857Z,94.91
2019-03-01T00:44:06.687Z,94.89
2019-03-01T00:49:12.069Z,94.84
2019-03-01T00:54:17.472Z,95.07
2019-03-01T00:59:22.832Z,95.12
2019-03-01T01:04:28.293Z,95.07
2019-03-01T01:09:33.868Z,95.05
2019-03-01T01:14:39.232Z,95.18
2019-03-01T01:19:44.591Z,95.05
2019-03-01T01:24:50.009Z,95.18
2019-03-01T01:29:55.457Z,95.21
2019-03-01T01:35:00.852Z,95.04
2019-03-01T01:40:06.557Z,94.66
2019-03-01T01:45:12.118Z,94.75
2019-03-01T01:50:17.575Z,94.74
2019-03-01T01:55:23.062Z,94.60
2019-03-01T02:00:28.624Z,94.67
2019-03-01T02:05:34.132Z,94.54
2019-03-01T02:10:39.529Z,94.58
2019-03-01T02:15:44.912Z,94.60
2019-03-01T02:20:50.278Z,94.48
2019-03-01T02:25:55.656Z,94.46
2019-03-01T02:31:02.012Z,94.21
2019-03-01T02:36:07.348Z,94.54
2019-03-01T02:41:12.742Z,94.66
2019-03-01T02:46:18.157Z,94.88
2019-03-01T02:51:23.483Z,94.98
2019-03-01T02:56:28.928Z,95.02
2019-03-01T03:01:34.382Z,94.55
2019-03-01T03:06:45.858Z,94.48
2019-03-01T03:11:51.317Z,94.40
2019-03-01T03:16:56.723Z,94.49
2019-03-01T03:22:02.153Z,94.83
2019-03-01T03:27:07.534Z,94.75
2019-03-01T03:32:13.021Z,94.31
2019-03-01T03:37:18.401Z,94.47
2019-03-01T03:42:24.046Z,94.72
2019-03-01T03:47:29.427Z,93.97
2019-03-01T03:52:35.884Z,93.69
2019-03-01T03:57:41.228Z,93.82
2019-03-01T04:02:46.921Z,93.85
2019-03-01T04:07:52.452Z,93.44
2019-03-01T04:12:57.969Z,93.11
2019-03-01T04:18:03.343Z,93.47
2019-03-01T04:23:08.804Z,93.58
2019-03-01T04:28:14.243Z,93.40
2019-03-01T04:33:19.874Z,92.72
2019-03-01T04:38:25.268Z,92.56
2019-03-01T04:43:30.665Z,92.60
2019-03-01T04:48:35.967Z,92.79
2019-03-01T04:53:41.282Z,91.97
2019-03-01T04:58:46.762Z,92.34
2019-03-01T05:03:52.167Z,92.07
2019-03-01T05:08:57.665Z,91.83
2019-03-01T05:14:03.044Z,91.87
2019-03-01T05:19:08.407Z,92.13
2019-03-01T05:24:13.838Z,92.39
2019-03-01T05:29:19.213Z,92.87
2019-03-01T05:34:24.662Z,93.03
2019-03-01T05:39:30.062Z,92.94
2019-03-01T05:44:35.597Z,93.28
2019-03-01T05:49:41.062Z,93.73
2019-03-01T05:54:46.652Z,94.22
2019-03-01T05:59:52.115Z,94.47
2019-03-01T06:05:01.529Z,94.02
2019-03-01T06:10:19.807Z,94.02
2019-03-01T06:15:41.246Z,93.70
2019-03-01T06:21:11.101Z,93.25
2019-03-01T06:26:45.212Z,92.65
2019-03-01T06:32:06.328Z,93.62
2019-03-01T06:37:29.254Z,94.34
2019-03-01T06:42:53.150Z,94.34
2019-03-01T06:47:58.683Z,94.67
2019-03-01T06:53:04.217Z,95.01
2019-03-01T06:58:12.362Z,94.87
2019-03-01T07:03:17.661Z,94.70
2019-03-01T07:08:23.265Z,94.71
2019-03-01T07:13:28.767Z,94.42
2019-03-01T07:18:34.201Z,94.38
2019-03-01T07:23:39.662Z,94.23
2019-03-01T07:28:45.019Z,94.52
2019-03-01T07:33:50.641Z,94.31
2019-03-01T07:38:56.153Z,94.60
2019-03-01T07:44:01.816Z,94.32
2019-03-01T07:49:07.181Z,94.35
2019-03-01T07:54:13.333Z,94.04
2019-03-01T07:59:19.884Z,94.25
2019-03-01T08:04:28.812Z,94.33
2019-03-01T08:09:32.657Z,94.30
2019-03-01T08:14:38.139Z,93.85
2019-03-01T08:19:45.630Z,94.07
2019-03-01T08:24:50.908Z,94.15
2019-03-01T08:29:56.297Z,93.80
2019-03-01T08:35:01.703Z,94.07
2019-03-01T08:40:11.500Z,94.15
2019-03-01T08:45:17.498Z,94.76
2019-03-01T08:50:23.034Z,94.83
2019-03-01T08:55:28.528Z,95.23
2019-03-01T09:00:34.393Z,95.31
2019-03-01T09:05:39.837Z,95.18
2019-03-01T09:10:45.254Z,94.66
2019-03-01T09:15:50.829Z,94.51
2019-03-01T09:21:04.571Z,94.27
2019-03-01T09:26:03.670Z,93.62
2019-03-01T09:31:09.139Z,92.51
2019-03-01T09:36:21.265Z,93.07
2019-03-01T09:41:25.468Z,93.42
2019-03-01T09:46:31.021Z,93.47
2019-03-01T09:51:36.723Z,89.10
2019-03-01T09:56:42.638Z,89.60
2019-03-01T10:01:48.439Z,90.37
2019-03-01T10:06:53.889Z,90.83
2019-03-01T10:11:59.264Z,91.77
2019-03-01T10:17:04.978Z,88.83
2019-03-01T10:22:10.654Z,87.44
2019-03-01T10:27:17.533Z,88.17
2019-03-01T10:32:23.031Z,89.20
2019-03-01T10:37:28.558Z,88.54
2019-03-01T10:42:34.068Z,87.43
2019-03-01T10:47:39.638Z,88.13
2019-03-01T10:52:45.206Z,85.40
2019-03-01T10:57:50.977Z,86.26
2019-03-01T11:02:56.933Z,82.77
2019-03-01T11:08:02.381Z,78.80
2019-03-01T11:13:08.573Z,79.37
2019-03-01T11:18:14.394Z,75.77
2019-03-01T11:23:21.633Z,78.60
2019-03-01T11:28:29.633Z,76.39
2019-03-01T11:33:35.109Z,75.60
2019-03-01T11:38:40.711Z,77.64
2019-03-01T11:43:46.143Z,78.87
2019-03-01T11:48:51.573Z,75.35
2019-03-01T11:53:57.054Z,79.28
2019-03-01T11:59:02.557Z,81.28
2019-03-01T12:04:08.119Z,80.81
2019-03-01T12:09:13.719Z,81.48
2019-03-01T12:14:19.131Z,78.63
2019-03-01T12:19:24.611Z,81.60
2019-03-01T12:24:30.020Z,81.20
2019-03-01T12:29:35.671Z,81.33
2019-03-01T12:34:41.139Z,79.56
2019-03-01T12:39:46.738Z,80.55
2019-03-01T12:44:53.269Z,82.71
2019-03-01T12:50:00.129Z,83.36
2019-03-01T12:55:06.714Z,84.31
2019-03-01T13:00:15.165Z,86.18
2019-03-01T13:05:20.743Z,86.20
2019-03-01T13:10:27.767Z,87.07
2019-03-01T13:15:33.317Z,88.00
2019-03-01T13:20:39.017Z,88.57
2019-03-01T13:25:44.604Z,89.46
2019-03-01T13:30:50.550Z,89.81
2019-03-01T13:35:56.101Z,90.72
2019-03-01T13:41:02.262Z,91.15
2019-03-01T13:46:08.537Z,91.67
2019-03-01T13:51:17.933Z,91.96
2019-03-01T13:56:23.572Z,91.86
2019-03-01T14:01:29.072Z,92.17
2019-03-01T14:06:34.662Z,92.74
2019-03-01T14:11:40.118Z,93.22
2019-03-01T14:16:45.512Z,93.76
2019-03-01T14:21:52.204Z,95.17
2019-03-01T14:26:59.191Z,95.74
2019-03-01T14:32:04.837Z,96.06
2019-03-01T14:37:11.559Z,96.71
2019-03-01T14:42:17.155Z,97.22
2019-03-01T14:47:22.769Z,97.66
2019-03-01T14:52:28.259Z,98.35
2019-03-01T14:57:37.378Z,98.84
2019-03-01T15:02:50.541Z,99.18
2019-03-01T15:07:56.017Z,99.43
2019-03-01T15:13:01.538Z,99.72
2019-03-01T15:18:07.399Z,99.84
2019-03-01T15:23:15.050Z,99.99
2019-03-01T15:28:20.318Z,100.00
2019-03-01T15:33:26.011Z,100.00
2019-03-01T15:38:31.557Z,100.00
2019-03-01T15:43:37.618Z,100.00
2019-03-01T15:48:43.130Z,100.00
2019-03-01T15:53:49.305Z,100.00
2019-03-01T15:58:54.917Z,100.00
2019-03-01T16:04:00.532Z,100.00
2019-03-01T16:09:09.317Z,100.00
2019-03-01T16:14:14.839Z,100.00
2019-03-01T16:19:20.438Z,100.00
2019-03-01T16:24:25.937Z,100.00
2019-03-01T16:29:31.657Z,100.00
2019-03-01T16:34:41.252Z,100.00
2019-03-01T16:39:45.199Z,100.00
2019-03-01T16:44:50.800Z,100.00
2019-03-01T16:50:06.586Z,100.00
2019-03-01T16:55:13.417Z,100.00
2019-03-01T17:00:19.678Z,100.00
2019-03-01T17:05:25.380Z,100.00
2019-03-01T17:10:31.247Z,100.00
2019-03-01T17:15:39.937Z,100.00
2019-03-01T17:20:47.836Z,100.00
2019-03-01T17:25:53.399Z,100.00
2019-03-01T17:30:59.353Z,100.00
2019-03-01T17:36:05.018Z,100.00
2019-03-01T17:41:11.006Z,100.00
2019-03-01T17:46:16.697Z,100.00
2019-03-01T17:51:22.457Z,100.00
2019-03-01T17:56:29.206Z,100.00
2019-03-01T18:01:35.664Z,100.00
2019-03-01T18:06:42.229Z,100.00
2019-03-01T18:11:47.997Z,100.00
2019-03-01T18:16:53.697Z,100.00
2019-03-01T18:21:59.217Z,100.00
2019-03-01T18:27:04.785Z,100.00
2019-03-01T18:32:10.900Z,100.00
2019-03-01T18:37:19.332Z,100.00
2019-03-01T18:42:23.597Z,100.00
2019-03-01T18:47:30.697Z,100.00
2019-03-01T18:52:36.577Z,100.00
2019-03-01T18:57:42.237Z,100.00
2019-03-01T19:02:48.313Z,100.00
2019-03-01T19:07:54.957Z,100.00
2019-03-01T19:13:00.538Z,100.00
2019-03-01T19:18:06.776Z,100.00
2019-03-01T19:23:12.318Z,100.00
2019-03-01T19:28:18.129Z,100.00
2019-03-01T19:33:23.697Z,100.00
2019-03-01T19:38:29.156Z,100.00
2019-03-01T19:43:34.629Z,100.00
2019-03-01T19:48:40.019Z,100.00
2019-03-01T19:53:45.371Z,100.00
2019-03-01T19:58:50.753Z,100.00
2019-03-01T20:03:57.154Z,100.00
2019-03-01T20:09:04.483Z,100.00
2019-03-01T20:14:09.745Z,100.00
2019-03-01T20:19:16.997Z,100.00
2019-03-01T20:24:27.130Z,100.00
2019-03-01T20:29:32.721Z,100.00
2019-03-01T20:34:38.845Z,100.00
2019-03-01T20:39:47.420Z,100.00
2019-03-01T20:44:53.086Z,100.00
2019-03-01T20:50:00.676Z,100.00
2019-03-01T20:55:06.757Z,100.00
2019-03-01T21:00:14.225Z,100.00
2019-03-01T21:05:19.655Z,100.00
2019-03-01T21:10:25.174Z,100.00
2019-03-01T21:15:30.723Z,100.00
2019-03-01T21:20:36.157Z,100.00
2019-03-01T21:25:41.592Z,100.00
2019-03-01T21:30:46.981Z,100.00
2019-03-01T21:35:52.375Z,100.00
2019-03-01T21:40:57.727Z,100.00
2019-03-01T21:46:03.144Z,100.00
2019-03-01T21:51:08.574Z,100.00
2019-03-01T21:56:14.105Z,100.00
2019-03-01T22:01:19.551Z,100.00
2019-03-01T22:06:24.941Z,100.00
2019-03-01T22:11:30.388Z,100.00
2019-03-01T22:16:36.584Z,100.00
2019-03-01T22:21:42.907Z,100.00
2019-03-01T22:26:49.558Z,100.00
2019-03-01T22:31:55.771Z,100.00
2019-03-01T22:37:01.213Z,100.00
2019-03-01T22:42:06.621Z,100.00
2019-03-01T22:47:12.196Z,100.00
2019-03-01T22:52:17.599Z,100.00
2019-03-01T22:57:25.940Z,100.00
2019-03-01T23:02:30.275Z,100.00
2019-03-01T23:07:35.741Z,100.00
2019-03-01T23:12:43.713Z,100.00
2019-03-01T23:17:48.337Z,100.00
2019-03-01T23:22:53.844Z,100.00
2019-03-01T23:27:59.221Z,100.00
2019-03-01T23:33:04.645Z,100.00
2019-03-01T23:38:11.479Z,100.00
2019-03-01T23:43:17.247Z,100.00
2019-03-01T23:48:22.816Z,100.00
2019-03-01T23:53:30.901Z,100.00
2019-03-01T23:58:35.316Z,100.00
